sensor_id;sensor_type;location;lat;lon;timestamp;pressure;altitude;pressure_sealevel;temperature;humidity
17362;BME280;8798;51.938;4.348;2023-05-19T00:00:30;101737.66;;;13.30;54.41
17362;BME280;8798;51.938;4.348;2023-05-19T00:03:01;101743.22;;;13.28;54.52
17362;BME280;8798;51.938;4.348;2023-05-19T00:05:31;101757.84;;;13.26;54.73
17362;BME280;8798;51.938;4.348;2023-05-19T00:07:59;101774.78;;;13.28;55.15
17362;BME280;8798;51.938;4.348;2023-05-19T00:10:27;101792.06;;;13.25;54.75
17362;BME280;8798;51.938;4.348;2023-05-19T00:12:58;101781.53;;;13.22;55.35
17362;BME280;8798;51.938;4.348;2023-05-19T00:15:26;101781.97;;;13.18;55.30
17362;BME280;8798;51.938;4.348;2023-05-19T00:17:54;101787.69;;;13.15;55.52
17362;BME280;8798;51.938;4.348;2023-05-19T00:20:23;101786.97;;;13.12;55.54
17362;BME280;8798;51.938;4.348;2023-05-19T00:22:51;101802.31;;;13.12;55.92
17362;BME280;8798;51.938;4.348;2023-05-19T00:25:19;101803.44;;;13.09;55.53
17362;BME280;8798;51.938;4.348;2023-05-19T00:27:47;101809.84;;;13.08;55.83
17362;BME280;8798;51.938;4.348;2023-05-19T00:30:16;101816.38;;;13.06;55.78
17362;BME280;8798;51.938;4.348;2023-05-19T00:32:44;101806.16;;;13.00;56.19
17362;BME280;8798;51.938;4.348;2023-05-19T00:35:12;101806.44;;;12.97;56.28
17362;BME280;8798;51.938;4.348;2023-05-19T00:37:41;101800.78;;;12.90;56.36
17362;BME280;8798;51.938;4.348;2023-05-19T00:40:09;101792.41;;;12.83;56.79
17362;BME280;8798;51.938;4.348;2023-05-19T00:42:38;101780.34;;;12.78;56.34
17362;BME280;8798;51.938;4.348;2023-05-19T00:45:06;101773.56;;;12.74;56.31
17362;BME280;8798;51.938;4.348;2023-05-19T00:47:34;101787.16;;;12.72;56.46
17362;BME280;8798;51.938;4.348;2023-05-19T00:50:03;101790.16;;;12.69;56.97
17362;BME280;8798;51.938;4.348;2023-05-19T00:52:31;101806.31;;;12.69;56.65
17362;BME280;8798;51.938;4.348;2023-05-19T00:55:00;101818.09;;;12.68;56.81
17362;BME280;8798;51.938;4.348;2023-05-19T00:57:28;101819.22;;;12.65;57.18
17362;BME280;8798;51.938;4.348;2023-05-19T00:59:56;101814.25;;;12.61;57.10
17362;BME280;8798;51.938;4.348;2023-05-19T01:02:24;101811.13;;;12.56;57.33
17362;BME280;8798;51.938;4.348;2023-05-19T01:04:52;101813.97;;;12.54;57.19
17362;BME280;8798;51.938;4.348;2023-05-19T01:07:21;101823.19;;;12.52;56.92
17362;BME280;8798;51.938;4.348;2023-05-19T01:09:50;101816.38;;;12.47;57.47
17362;BME280;8798;51.938;4.348;2023-05-19T01:12:20;101814.94;;;12.43;57.73
17362;BME280;8798;51.938;4.348;2023-05-19T01:14:48;101809.13;;;12.38;57.79
17362;BME280;8798;51.938;4.348;2023-05-19T01:17:20;101812.94;;;12.36;57.57
17362;BME280;8798;51.938;4.348;2023-05-19T01:19:56;101807.97;;;12.31;58.20
17362;BME280;8798;51.938;4.348;2023-05-19T01:22:43;101797.78;;;12.25;57.77
17362;BME280;8798;51.938;4.348;2023-05-19T01:25:40;101790.94;;;12.21;58.08
17362;BME280;8798;51.938;4.348;2023-05-19T01:28:29;101788.81;;;12.15;58.30
17362;BME280;8798;51.938;4.348;2023-05-19T01:31:00;101761.03;;;12.04;58.27
17362;BME280;8798;51.938;4.348;2023-05-19T01:33:31;101753.47;;;11.98;58.62
17362;BME280;8798;51.938;4.348;2023-05-19T01:36:02;101770.63;;;11.97;58.66
17362;BME280;8798;51.938;4.348;2023-05-19T01:38:32;101793.03;;;11.98;58.57
17362;BME280;8798;51.938;4.348;2023-05-19T01:41:02;101801.94;;;11.98;59.00
17362;BME280;8798;51.938;4.348;2023-05-19T01:43:30;101806.63;;;11.96;58.71
17362;BME280;8798;51.938;4.348;2023-05-19T01:46:01;101816.53;;;11.96;58.79
17362;BME280;8798;51.938;4.348;2023-05-19T01:48:29;101815.97;;;11.92;58.86
17362;BME280;8798;51.938;4.348;2023-05-19T01:50:57;101787.13;;;11.83;58.68
17362;BME280;8798;51.938;4.348;2023-05-19T01:53:25;101785.69;;;11.79;59.05
17362;BME280;8798;51.938;4.348;2023-05-19T01:55:55;101787.81;;;11.75;59.31
17362;BME280;8798;51.938;4.348;2023-05-19T01:58:30;101789.91;;;11.72;59.00
17362;BME280;8798;51.938;4.348;2023-05-19T02:01:10;101803.38;;;11.72;58.95
17362;BME280;8798;51.938;4.348;2023-05-19T02:03:51;101812.47;;;11.71;59.31
17362;BME280;8798;51.938;4.348;2023-05-19T02:06:28;101817.97;;;11.69;59.37
17362;BME280;8798;51.938;4.348;2023-05-19T02:09:02;101823.50;;;11.68;59.49
17362;BME280;8798;51.938;4.348;2023-05-19T02:11:35;101823.91;;;11.63;59.53
17362;BME280;8798;51.938;4.348;2023-05-19T02:14:08;101835.78;;;11.60;59.31
17362;BME280;8798;51.938;4.348;2023-05-19T02:16:40;101829.81;;;11.57;59.96
17362;BME280;8798;51.938;4.348;2023-05-19T02:19:20;101823.84;;;11.53;59.62
17362;BME280;8798;51.938;4.348;2023-05-19T02:21:48;101810.91;;;11.47;59.88
17362;BME280;8798;51.938;4.348;2023-05-19T02:24:17;101818.28;;;11.45;60.02
17362;BME280;8798;51.938;4.348;2023-05-19T02:26:45;101829.91;;;11.46;60.23
17362;BME280;8798;51.938;4.348;2023-05-19T02:29:14;101840.78;;;11.44;59.98
17362;BME280;8798;51.938;4.348;2023-05-19T02:31:43;101826.88;;;11.39;60.07
17362;BME280;8798;51.938;4.348;2023-05-19T02:34:11;101825.44;;;11.35;60.17
17362;BME280;8798;51.938;4.348;2023-05-19T02:36:40;101836.47;;;11.32;60.44
17362;BME280;8798;51.938;4.348;2023-05-19T02:39:09;101841.84;;;11.32;60.66
17362;BME280;8798;51.938;4.348;2023-05-19T02:41:37;101849.91;;;11.32;60.74
17362;BME280;8798;51.938;4.348;2023-05-19T02:44:05;101857.25;;;11.30;60.38
17362;BME280;8798;51.938;4.348;2023-05-19T02:46:33;101849.59;;;11.25;60.76
17362;BME280;8798;51.938;4.348;2023-05-19T02:49:02;101842.66;;;11.23;60.51
17362;BME280;8798;51.938;4.348;2023-05-19T02:51:30;101854.50;;;11.20;60.98
17362;BME280;8798;51.938;4.348;2023-05-19T02:53:58;101855.59;;;11.17;61.04
17362;BME280;8798;51.938;4.348;2023-05-19T02:56:26;101833.78;;;11.11;61.11
17362;BME280;8798;51.938;4.348;2023-05-19T02:58:54;101835.88;;;11.07;60.71
17362;BME280;8798;51.938;4.348;2023-05-19T03:01:24;101830.03;;;11.02;61.27
17362;BME280;8798;51.938;4.348;2023-05-19T03:03:51;101834.69;;;11.00;60.82
17362;BME280;8798;51.938;4.348;2023-05-19T03:06:21;101833.38;;;10.94;61.18
17362;BME280;8798;51.938;4.348;2023-05-19T03:08:50;101810.56;;;10.89;61.17
17362;BME280;8798;51.938;4.348;2023-05-19T03:11:17;101810.94;;;10.84;61.27
17362;BME280;8798;51.938;4.348;2023-05-19T03:13:45;101797.16;;;10.77;61.20
17362;BME280;8798;51.938;4.348;2023-05-19T03:16:13;101808.91;;;10.76;61.28
17362;BME280;8798;51.938;4.348;2023-05-19T03:18:45;101815.25;;;10.75;61.42
17362;BME280;8798;51.938;4.348;2023-05-19T03:21:12;101810.28;;;10.71;61.61
17362;BME280;8798;51.938;4.348;2023-05-19T03:23:42;101828.09;;;10.72;61.31
17362;BME280;8798;51.938;4.348;2023-05-19T03:26:10;101847.63;;;10.74;61.71
17362;BME280;8798;51.938;4.348;2023-05-19T03:28:38;101854.84;;;10.73;62.00
17362;BME280;8798;51.938;4.348;2023-05-19T03:31:05;101866.44;;;10.74;62.12
17362;BME280;8798;51.938;4.348;2023-05-19T03:33:33;101888.69;;;10.76;62.11
17362;BME280;8798;51.938;4.348;2023-05-19T03:36:01;101911.03;;;10.76;61.91
17362;BME280;8798;51.938;4.348;2023-05-19T03:38:30;101927.88;;;10.79;62.36
17362;BME280;8798;51.938;4.348;2023-05-19T03:40:59;101934.09;;;10.79;62.54
17362;BME280;8798;51.938;4.348;2023-05-19T03:43:27;101940.47;;;10.78;62.15
17362;BME280;8798;51.938;4.348;2023-05-19T03:45:55;101957.44;;;10.79;62.72
17362;BME280;8798;51.938;4.348;2023-05-19T03:48:23;101976.84;;;10.82;62.36
17362;BME280;8798;51.938;4.348;2023-05-19T03:50:52;101990.44;;;10.81;62.45
17362;BME280;8798;51.938;4.348;2023-05-19T03:53:20;101986.16;;;10.78;62.74
17362;BME280;8798;51.938;4.348;2023-05-19T03:55:48;101984.44;;;10.77;62.48
17362;BME280;8798;51.938;4.348;2023-05-19T03:58:19;102000.56;;;10.77;62.90
17362;BME280;8798;51.938;4.348;2023-05-19T04:00:47;101998.97;;;10.74;63.01
17362;BME280;8798;51.938;4.348;2023-05-19T04:03:15;102007.03;;;10.74;62.87
17362;BME280;8798;51.938;4.348;2023-05-19T04:05:42;102014.25;;;10.74;62.92
17362;BME280;8798;51.938;4.348;2023-05-19T04:08:11;102021.59;;;10.72;63.32
17362;BME280;8798;51.938;4.348;2023-05-19T04:10:38;102026.84;;;10.73;63.08
17362;BME280;8798;51.938;4.348;2023-05-19T04:13:06;102036.88;;;10.71;63.29
17362;BME280;8798;51.938;4.348;2023-05-19T04:15:36;102047.63;;;10.71;63.43
17362;BME280;8798;51.938;4.348;2023-05-19T04:18:04;102059.94;;;10.74;63.17
17362;BME280;8798;51.938;4.348;2023-05-19T04:20:32;102078.63;;;10.75;63.02
17362;BME280;8798;51.938;4.348;2023-05-19T04:23:00;102099.06;;;10.78;63.25
17362;BME280;8798;51.938;4.348;2023-05-19T04:25:28;102099.06;;;10.78;63.38
17362;BME280;8798;51.938;4.348;2023-05-19T04:27:55;102096.59;;;10.75;63.47
17362;BME280;8798;51.938;4.348;2023-05-19T04:30:24;102102.94;;;10.74;63.46
17362;BME280;8798;51.938;4.348;2023-05-19T04:32:53;102114.44;;;10.76;63.74
17362;BME280;8798;51.938;4.348;2023-05-19T04:35:23;102119.06;;;10.74;63.92
17362;BME280;8798;51.938;4.348;2023-05-19T04:37:51;102136.78;;;10.76;63.65
17362;BME280;8798;51.938;4.348;2023-05-19T04:40:20;102151.94;;;10.77;63.82
17362;BME280;8798;51.938;4.348;2023-05-19T04:42:49;102149.38;;;10.76;63.57
17362;BME280;8798;51.938;4.348;2023-05-19T04:45:18;102141.53;;;10.73;64.04
17362;BME280;8798;51.938;4.348;2023-05-19T04:47:46;102151.56;;;10.71;64.21
17362;BME280;8798;51.938;4.348;2023-05-19T04:50:16;102134.81;;;10.67;63.78
17362;BME280;8798;51.938;4.348;2023-05-19T04:52:43;102139.44;;;10.65;63.80
17362;BME280;8798;51.938;4.348;2023-05-19T04:55:12;102149.34;;;10.65;64.19
17362;BME280;8798;51.938;4.348;2023-05-19T04:57:39;102159.84;;;10.68;64.45
17362;BME280;8798;51.938;4.348;2023-05-19T05:00:08;102184.66;;;10.71;64.22
17362;BME280;8798;51.938;4.348;2023-05-19T05:02:38;102195.28;;;10.73;64.75
17362;BME280;8798;51.938;4.348;2023-05-19T05:05:07;102223.66;;;10.77;64.34
17362;BME280;8798;51.938;4.348;2023-05-19T05:07:37;102233.44;;;10.78;64.56
17362;BME280;8798;51.938;4.348;2023-05-19T05:10:06;102241.50;;;10.78;64.66
17362;BME280;8798;51.938;4.348;2023-05-19T05:12:35;102259.34;;;10.79;64.60
17362;BME280;8798;51.938;4.348;2023-05-19T05:15:04;102270.69;;;10.83;64.53
17362;BME280;8798;51.938;4.348;2023-05-19T05:17:33;102285.00;;;10.83;64.96
17362;BME280;8798;51.938;4.348;2023-05-19T05:20:01;102275.56;;;10.77;64.89
17362;BME280;8798;51.938;4.348;2023-05-19T05:22:31;102272.78;;;10.79;64.98
17362;BME280;8798;51.938;4.348;2023-05-19T05:25:01;102280.94;;;10.77;65.23
17362;BME280;8798;51.938;4.348;2023-05-19T05:27:29;102290.72;;;10.79;65.12
17362;BME280;8798;51.938;4.348;2023-05-19T05:29:58;102303.09;;;10.81;65.12
17362;BME280;8798;51.938;4.348;2023-05-19T05:32:26;102326.03;;;10.85;64.97
17362;BME280;8798;51.938;4.348;2023-05-19T05:34:54;102349.78;;;10.91;65.81
17362;BME280;8798;51.938;4.348;2023-05-19T05:37:22;102382.66;;;10.95;65.57
17362;BME280;8798;51.938;4.348;2023-05-19T05:39:50;102402.88;;;11.01;65.03
17362;BME280;8798;51.938;4.348;2023-05-19T05:42:19;102447.03;;;11.09;65.14
17362;BME280;8798;51.938;4.348;2023-05-19T05:44:47;102481.53;;;11.15;65.88
17362;BME280;8798;51.938;4.348;2023-05-19T05:47:15;102505.16;;;11.23;65.72
17362;BME280;8798;51.938;4.348;2023-05-19T05:49:44;102543.97;;;11.32;66.03
17362;BME280;8798;51.938;4.348;2023-05-19T05:52:14;102571.38;;;11.37;65.64
17362;BME280;8798;51.938;4.348;2023-05-19T05:54:46;102592.56;;;11.41;65.95
17362;BME280;8798;51.938;4.348;2023-05-19T05:57:14;102615.47;;;11.47;65.65
17362;BME280;8798;51.938;4.348;2023-05-19T05:59:43;102629.47;;;11.52;65.89
17362;BME280;8798;51.938;4.348;2023-05-19T06:02:12;102664.97;;;11.57;66.21
17362;BME280;8798;51.938;4.348;2023-05-19T06:04:40;102677.22;;;11.61;66.27
17362;BME280;8798;51.938;4.348;2023-05-19T06:07:09;102712.53;;;11.70;66.45
17362;BME280;8798;51.938;4.348;2023-05-19T06:09:37;102749.53;;;11.79;66.45
17362;BME280;8798;51.938;4.348;2023-05-19T06:12:05;102769.78;;;11.84;66.37
17362;BME280;8798;51.938;4.348;2023-05-19T06:14:33;102791.00;;;11.89;66.11
17362;BME280;8798;51.938;4.348;2023-05-19T06:17:03;102810.25;;;11.96;66.20
17362;BME280;8798;51.938;4.348;2023-05-19T06:19:31;102821.78;;;11.98;66.36
17362;BME280;8798;51.938;4.348;2023-05-19T06:21:58;102827.94;;;12.00;66.34
17362;BME280;8798;51.938;4.348;2023-05-19T06:24:26;102852.56;;;12.07;66.41
17362;BME280;8798;51.938;4.348;2023-05-19T06:26:54;102873.78;;;12.11;66.20
17362;BME280;8798;51.938;4.348;2023-05-19T06:29:22;102895.78;;;12.18;66.45
17362;BME280;8798;51.938;4.348;2023-05-19T06:31:50;102900.06;;;12.20;66.82
17362;BME280;8798;51.938;4.348;2023-05-19T06:34:19;102896.53;;;12.20;66.60
17362;BME280;8798;51.938;4.348;2023-05-19T06:36:47;102901.78;;;12.21;66.80
17362;BME280;8798;51.938;4.348;2023-05-19T06:39:15;102930.00;;;12.29;67.00
17362;BME280;8798;51.938;4.348;2023-05-19T06:41:43;102940.47;;;12.33;66.78
17362;BME280;8798;51.938;4.348;2023-05-19T06:44:11;102949.31;;;12.35;66.85
17362;BME280;8798;51.938;4.348;2023-05-19T06:46:39;102956.19;;;12.39;66.97
17362;BME280;8798;51.938;4.348;2023-05-19T06:49:07;102972.91;;;12.44;67.32
17362;BME280;8798;51.938;4.348;2023-05-19T06:51:36;102992.41;;;12.48;67.00
17362;BME280;8798;51.938;4.348;2023-05-19T06:54:04;102994.75;;;12.53;66.67
17362;BME280;8798;51.938;4.348;2023-05-19T06:56:32;103011.59;;;12.56;66.77
17362;BME280;8798;51.938;4.348;2023-05-19T06:58:59;103037.13;;;12.63;67.16
17362;BME280;8798;51.938;4.348;2023-05-19T07:01:27;103057.28;;;12.70;66.83
17362;BME280;8798;51.938;4.348;2023-05-19T07:03:55;103089.09;;;12.78;67.24
17362;BME280;8798;51.938;4.348;2023-05-19T07:06:24;103112.84;;;12.86;67.11
17362;BME280;8798;51.938;4.348;2023-05-19T07:08:53;103132.97;;;12.93;67.37
17362;BME280;8798;51.938;4.348;2023-05-19T07:11:21;103155.97;;;12.99;67.33
17362;BME280;8798;51.938;4.348;2023-05-19T07:13:49;103156.59;;;13.02;67.34
17362;BME280;8798;51.938;4.348;2023-05-19T07:16:17;103180.47;;;13.08;66.96
17362;BME280;8798;51.938;4.348;2023-05-19T07:18:45;103191.78;;;13.13;67.10
17362;BME280;8798;51.938;4.348;2023-05-19T07:21:13;103206.56;;;13.21;67.11
17362;BME280;8798;51.938;4.348;2023-05-19T07:23:41;103231.28;;;13.27;67.13
17362;BME280;8798;51.938;4.348;2023-05-19T07:26:10;103248.91;;;13.33;67.20
17362;BME280;8798;51.938;4.348;2023-05-19T07:28:38;103268.22;;;13.40;67.44
17362;BME280;8798;51.938;4.348;2023-05-19T07:31:08;103276.97;;;13.43;66.76
17362;BME280;8798;51.938;4.348;2023-05-19T07:33:36;103295.31;;;13.51;66.99
17362;BME280;8798;51.938;4.348;2023-05-19T07:36:04;103318.22;;;13.58;67.05
17362;BME280;8798;51.938;4.348;2023-05-19T07:38:32;103336.66;;;13.64;66.84
17362;BME280;8798;51.938;4.348;2023-05-19T07:41:01;103347.03;;;13.70;66.81
17362;BME280;8798;51.938;4.348;2023-05-19T07:43:31;103368.19;;;13.76;67.13
17362;BME280;8798;51.938;4.348;2023-05-19T07:45:58;103381.28;;;13.83;66.76
17362;BME280;8798;51.938;4.348;2023-05-19T07:48:26;103401.34;;;13.91;66.99
17362;BME280;8798;51.938;4.348;2023-05-19T07:50:55;103438.44;;;14.02;66.58
17362;BME280;8798;51.938;4.348;2023-05-19T07:53:23;103455.06;;;14.09;67.15
17362;BME280;8798;51.938;4.348;2023-05-19T07:55:50;103473.56;;;14.15;66.93
17362;BME280;8798;51.938;4.348;2023-05-19T07:58:18;103484.06;;;14.19;66.62
17362;BME280;8798;51.938;4.348;2023-05-19T08:00:47;103488.16;;;14.25;66.78
17362;BME280;8798;51.938;4.348;2023-05-19T08:03:15;103501.22;;;14.31;66.78
17362;BME280;8798;51.938;4.348;2023-05-19T08:05:44;103517.88;;;14.38;66.91
17362;BME280;8798;51.938;4.348;2023-05-19T08:08:13;103533.53;;;14.46;66.77
17362;BME280;8798;51.938;4.348;2023-05-19T08:10:42;103550.19;;;14.52;66.70
17362;BME280;8798;51.938;4.348;2023-05-19T08:13:10;103567.75;;;14.59;66.71
17362;BME280;8798;51.938;4.348;2023-05-19T08:15:38;103540.03;;;14.56;66.38
17362;BME280;8798;51.938;4.348;2023-05-19T08:18:08;103522.09;;;14.55;66.30
17362;BME280;8798;51.938;4.348;2023-05-19T08:20:36;103518.19;;;14.59;66.16
17362;BME280;8798;51.938;4.348;2023-05-19T08:23:04;103529.56;;;14.64;66.19
17362;BME280;8798;51.938;4.348;2023-05-19T08:25:32;103542.63;;;14.70;66.44
17362;BME280;8798;51.938;4.348;2023-05-19T08:27:59;103541.53;;;14.73;66.26
17362;BME280;8798;51.938;4.348;2023-05-19T08:30:27;103550.16;;;14.78;66.16
17362;BME280;8798;51.938;4.348;2023-05-19T08:32:56;103570.41;;;14.85;66.30
17362;BME280;8798;51.938;4.348;2023-05-19T08:35:25;103587.81;;;14.94;66.06
17362;BME280;8798;51.938;4.348;2023-05-19T08:37:53;103615.09;;;15.03;65.92
17362;BME280;8798;51.938;4.348;2023-05-19T08:40:22;103646.03;;;15.12;66.27
17362;BME280;8798;51.938;4.348;2023-05-19T08:42:50;103673.81;;;15.27;65.74
17362;BME280;8798;51.938;4.348;2023-05-19T08:45:18;103711.06;;;15.36;65.86
17362;BME280;8798;51.938;4.348;2023-05-19T08:47:46;103717.88;;;15.42;65.66
17362;BME280;8798;51.938;4.348;2023-05-19T08:50:17;103721.00;;;15.48;65.50
17362;BME280;8798;51.938;4.348;2023-05-19T08:52:51;103721.53;;;15.54;65.52
17362;BME280;8798;51.938;4.348;2023-05-19T08:55:31;103741.66;;;15.62;65.30
17362;BME280;8798;51.938;4.348;2023-05-19T08:58:02;103750.22;;;15.69;65.21
17362;BME280;8798;51.938;4.348;2023-05-19T09:00:31;103761.59;;;15.74;64.92
17362;BME280;8798;51.938;4.348;2023-05-19T09:03:00;103783.47;;;15.84;64.94
17362;BME280;8798;51.938;4.348;2023-05-19T09:05:44;103799.94;;;15.94;64.67
17362;BME280;8798;51.938;4.348;2023-05-19T09:08:14;103822.66;;;16.04;64.57
17362;BME280;8798;51.938;4.348;2023-05-19T09:10:42;103837.41;;;16.12;64.36
17362;BME280;8798;51.938;4.348;2023-05-19T09:13:10;103855.81;;;16.20;64.10
17362;BME280;8798;51.938;4.348;2023-05-19T09:15:38;103859.81;;;16.27;63.74
17362;BME280;8798;51.938;4.348;2023-05-19T09:18:09;103892.41;;;16.39;63.98
17362;BME280;8798;51.938;4.348;2023-05-19T09:20:39;103927.53;;;16.53;64.04
17362;BME280;8798;51.938;4.348;2023-05-19T09:23:10;103961.91;;;16.65;63.69
17362;BME280;8798;51.938;4.348;2023-05-19T09:25:49;103990.84;;;16.77;63.16
17362;BME280;8798;51.938;4.348;2023-05-19T09:28:24;104004.66;;;16.87;63.11
17362;BME280;8798;51.938;4.348;2023-05-19T09:30:58;104028.16;;;17.00;62.70
17362;BME280;8798;51.938;4.348;2023-05-19T09:33:27;104060.69;;;17.12;62.84
17362;BME280;8798;51.938;4.348;2023-05-19T09:35:55;104098.56;;;17.27;62.28
17362;BME280;8798;51.938;4.348;2023-05-19T09:38:23;104137.31;;;17.41;62.37
17362;BME280;8798;51.938;4.348;2023-05-19T09:40:54;104161.72;;;17.54;62.22
17362;BME280;8798;51.938;4.348;2023-05-19T09:43:23;104170.16;;;17.62;61.76
17362;BME280;8798;51.938;4.348;2023-05-19T09:45:54;104169.56;;;17.70;61.30
17362;BME280;8798;51.938;4.348;2023-05-19T09:48:25;104187.06;;;17.79;61.16
17362;BME280;8798;51.938;4.348;2023-05-19T09:50:53;104218.69;;;17.93;60.88
17362;BME280;8798;51.938;4.348;2023-05-19T09:53:23;104218.22;;;17.99;60.70
17362;BME280;8798;51.938;4.348;2023-05-19T09:55:55;104228.41;;;18.08;60.46
17362;BME280;8798;51.938;4.348;2023-05-19T09:58:24;104238.56;;;18.17;60.22
17362;BME280;8798;51.938;4.348;2023-05-19T10:00:54;104241.69;;;18.24;60.08
17362;BME280;8798;51.938;4.348;2023-05-19T10:03:22;104234.88;;;18.30;59.42
17362;BME280;8798;51.938;4.348;2023-05-19T10:05:52;104192.44;;;18.27;59.53
17362;BME280;8798;51.938;4.348;2023-05-19T10:08:21;104192.09;;;18.32;59.35
17362;BME280;8798;51.938;4.348;2023-05-19T10:10:50;104182.59;;;18.37;59.19
17362;BME280;8798;51.938;4.348;2023-05-19T10:13:20;104162.53;;;18.38;58.77
17362;BME280;8798;51.938;4.348;2023-05-19T10:15:48;104138.03;;;18.38;58.17
17362;BME280;8798;51.938;4.348;2023-05-19T10:18:21;104132.22;;;18.43;58.13
17362;BME280;8798;51.938;4.348;2023-05-19T10:20:51;104146.72;;;18.55;58.00
17362;BME280;8798;51.938;4.348;2023-05-19T10:23:19;104115.16;;;18.52;57.60
17362;BME280;8798;51.938;4.348;2023-05-19T10:25:48;104081.75;;;18.50;57.26
17362;BME280;8798;51.938;4.348;2023-05-19T10:28:17;104085.81;;;18.56;57.26
17362;BME280;8798;51.938;4.348;2023-05-19T10:30:52;104084.44;;;18.61;56.83
17362;BME280;8798;51.938;4.348;2023-05-19T10:33:28;104098.19;;;18.71;56.84
17362;BME280;8798;51.938;4.348;2023-05-19T10:36:14;104121.72;;;18.83;56.50
17362;BME280;8798;51.938;4.348;2023-05-19T10:38:54;104154.16;;;18.98;56.63
17362;BME280;8798;51.938;4.348;2023-05-19T10:41:26;104184.88;;;19.11;55.93
17362;BME280;8798;51.938;4.348;2023-05-19T10:43:59;104187.84;;;19.19;55.88
17362;BME280;8798;51.938;4.348;2023-05-19T10:46:31;104180.16;;;19.24;55.83
17362;BME280;8798;51.938;4.348;2023-05-19T10:48:59;104166.25;;;19.27;55.62
17362;BME280;8798;51.938;4.348;2023-05-19T10:51:29;104148.03;;;19.28;55.58
17362;BME280;8798;51.938;4.348;2023-05-19T10:53:57;104110.03;;;19.26;55.31
17362;BME280;8798;51.938;4.348;2023-05-19T10:56:30;104049.94;;;19.17;54.88
17362;BME280;8798;51.938;4.348;2023-05-19T10:58:59;104002.41;;;19.09;54.63
17362;BME280;8798;51.938;4.348;2023-05-19T11:01:33;103931.47;;;19.00;54.91
17362;BME280;8798;51.938;4.348;2023-05-19T11:04:04;103855.22;;;18.88;54.50
17362;BME280;8798;51.938;4.348;2023-05-19T11:06:33;103843.34;;;18.89;54.06
17362;BME280;8798;51.938;4.348;2023-05-19T11:09:11;103848.25;;;18.96;53.99
17362;BME280;8798;51.938;4.348;2023-05-19T11:11:47;103870.00;;;19.07;53.96
17362;BME280;8798;51.938;4.348;2023-05-19T11:14:17;103868.72;;;19.11;53.63
17362;BME280;8798;51.938;4.348;2023-05-19T11:16:47;103822.06;;;19.04;53.62
17362;BME280;8798;51.938;4.348;2023-05-19T11:19:24;103780.75;;;18.99;53.46
17362;BME280;8798;51.938;4.348;2023-05-19T11:21:52;103784.78;;;19.05;53.36
17362;BME280;8798;51.938;4.348;2023-05-19T11:24:34;103792.28;;;19.12;53.16
17362;BME280;8798;51.938;4.348;2023-05-19T11:27:24;103848.88;;;19.30;53.12
17362;BME280;8798;51.938;4.348;2023-05-19T11:29:53;103853.78;;;19.36;52.84
17362;BME280;8798;51.938;4.348;2023-05-19T11:32:26;103873.94;;;19.45;52.65
17362;BME280;8798;51.938;4.348;2023-05-19T11:34:55;103884.16;;;19.52;52.48
17362;BME280;8798;51.938;4.348;2023-05-19T11:37:23;103873.72;;;19.58;52.42
17362;BME280;8798;51.938;4.348;2023-05-19T11:39:52;103863.53;;;19.60;52.25
17362;BME280;8798;51.938;4.348;2023-05-19T11:42:19;103867.72;;;19.64;52.02
17362;BME280;8798;51.938;4.348;2023-05-19T11:44:48;103874.38;;;19.71;51.85
17362;BME280;8798;51.938;4.348;2023-05-19T11:47:16;103811.72;;;19.60;51.78
17362;BME280;8798;51.938;4.348;2023-05-19T11:49:46;103740.88;;;19.48;51.54
17362;BME280;8798;51.938;4.348;2023-05-19T11:52:15;103715.66;;;19.46;51.38
17362;BME280;8798;51.938;4.348;2023-05-19T11:54:47;103739.22;;;19.57;51.24
17362;BME280;8798;51.938;4.348;2023-05-19T11:57:15;103761.06;;;19.67;51.07
17362;BME280;8798;51.938;4.348;2023-05-19T11:59:43;103782.94;;;19.76;51.22
17362;BME280;8798;51.938;4.348;2023-05-19T12:02:21;103806.50;;;19.87;50.79
17362;BME280;8798;51.938;4.348;2023-05-19T12:04:52;103771.19;;;19.86;50.84
17362;BME280;8798;51.938;4.348;2023-05-19T12:07:22;103751.19;;;19.85;50.60
17362;BME280;8798;51.938;4.348;2023-05-19T12:09:51;103735.84;;;19.84;50.23
17362;BME280;8798;51.938;4.348;2023-05-19T12:12:20;103770.06;;;19.98;50.17
17362;BME280;8798;51.938;4.348;2023-05-19T12:14:49;103800.66;;;20.11;50.07
17362;BME280;8798;51.938;4.348;2023-05-19T12:17:20;103806.69;;;20.15;49.75
17362;BME280;8798;51.938;4.348;2023-05-19T12:19:49;103766.88;;;20.12;49.90
17362;BME280;8798;51.938;4.348;2023-05-19T12:22:19;103758.56;;;20.14;49.61
17362;BME280;8798;51.938;4.348;2023-05-19T12:24:47;103783.00;;;20.25;49.61
17362;BME280;8798;51.938;4.348;2023-05-19T12:27:17;103837.75;;;20.43;49.47
17362;BME280;8798;51.938;4.348;2023-05-19T12:29:48;103864.91;;;20.54;49.36
17362;BME280;8798;51.938;4.348;2023-05-19T12:32:17;103865.38;;;20.59;49.43
17362;BME280;8798;51.938;4.348;2023-05-19T12:34:45;103828.44;;;20.55;48.99
17362;BME280;8798;51.938;4.348;2023-05-19T12:37:13;103788.00;;;20.49;48.86
17362;BME280;8798;51.938;4.348;2023-05-19T12:39:42;103770.63;;;20.50;48.96
17362;BME280;8798;51.938;4.348;2023-05-19T12:42:11;103788.88;;;20.59;48.85
17362;BME280;8798;51.938;4.348;2023-05-19T12:44:42;103818.81;;;20.71;49.04
17362;BME280;8798;51.938;4.348;2023-05-19T12:47:12;103831.59;;;20.80;48.44
17362;BME280;8798;51.938;4.348;2023-05-19T12:49:52;103839.19;;;20.86;48.43
17362;BME280;8798;51.938;4.348;2023-05-19T12:52:21;103813.75;;;20.86;48.13
17362;BME280;8798;51.938;4.348;2023-05-19T12:54:57;103795.34;;;20.88;48.04
17362;BME280;8798;51.938;4.348;2023-05-19T12:57:25;103832.44;;;21.00;47.78
17362;BME280;8798;51.938;4.348;2023-05-19T12:59:59;103812.44;;;20.99;48.04
17362;BME280;8798;51.938;4.348;2023-05-19T13:02:27;103750.28;;;20.92;48.12
17362;BME280;8798;51.938;4.348;2023-05-19T13:04:56;103721.53;;;20.88;47.77
17362;BME280;8798;51.938;4.348;2023-05-19T13:07:24;103728.13;;;20.95;47.88
17362;BME280;8798;51.938;4.348;2023-05-19T13:09:53;103742.75;;;21.03;47.61
17362;BME280;8798;51.938;4.348;2023-05-19T13:12:22;103715.72;;;21.00;47.61